Time;durP1;ratioP1;P1;durP2;ratioP2;P2;SDS_P1;SDS_P2;PMS_P1;PMS_P2;Temp;Humidity;BMP_temperature;BMP_pressure;BME280_temperature;BME280_humidity;BME280_pressure;Samples;Min_cycle;Max_cycle;Signal;HPM_P1;HPM_P2
2023/02/01 00:01:12;;;;;;;21.03;2.47;;;4.40;99.90;;;;;;4911205;29;20048;-72
2023/02/01 00:03:38;;;;;;;12.00;1.67;;;4.40;99.90;;;;;;4913219;29;20039;-73
2023/02/01 00:06:04;;;;;;;19.23;3.55;;;4.50;99.90;;;;;;4895952;29;20047;-70
2023/02/01 00:08:31;;;;;;;24.10;3.30;;;4.50;99.90;;;;;;4907174;29;20046;-71
2023/02/01 00:11:03;;;;;;;22.35;2.60;;;4.60;99.90;;;;;;4883013;29;20047;-72
2023/02/01 00:13:30;;;;;;;20.25;2.80;;;4.60;99.90;;;;;;4895739;29;20028;-73
2023/02/01 00:16:09;;;;;;;16.43;2.57;;;4.70;99.90;;;;;;4898281;29;20476;-72
2023/02/01 00:18:36;;;;;;;14.68;1.90;;;4.70;99.90;;;;;;4894531;29;20040;-73
2023/02/01 00:21:02;;;;;;;18.73;2.47;;;4.70;99.90;;;;;;4896092;29;20031;-73
2023/02/01 00:23:31;;;;;;;22.42;2.22;;;4.70;99.90;;;;;;4909174;29;20039;-72
2023/02/01 00:26:01;;;;;;;16.52;2.60;;;4.60;99.90;;;;;;4880837;29;20036;-72
2023/02/01 00:28:27;;;;;;;9.80;1.55;;;4.60;99.90;;;;;;4896816;29;20028;-72
2023/02/01 00:31:01;;;;;;;14.63;2.42;;;4.60;99.90;;;;;;4885950;29;20039;-73
2023/02/01 00:33:29;;;;;;;17.30;2.03;;;4.60;99.90;;;;;;4894988;29;20388;-72
2023/02/01 00:36:06;;;;;;;14.97;1.57;;;4.50;99.90;;;;;;4888330;29;20074;-72
2023/02/01 00:38:35;;;;;;;16.50;1.92;;;4.50;99.90;;;;;;4895986;29;20043;-72
2023/02/01 00:41:12;;;;;;;10.27;1.67;;;4.50;99.90;;;;;;4918317;29;20043;-73
2023/02/01 00:43:39;;;;;;;13.77;1.70;;;4.50;99.90;;;;;;4893736;29;20048;-74
2023/02/01 00:46:07;;;;;;;17.85;2.20;;;4.50;99.90;;;;;;4894133;29;20072;-72
2023/02/01 00:48:34;;;;;;;19.40;2.08;;;4.50;99.90;;;;;;4918189;29;20040;-72
2023/02/01 00:51:01;;;;;;;12.75;1.60;;;4.50;99.90;;;;;;4880134;29;20047;-73
2023/02/01 00:53:28;;;;;;;25.10;2.95;;;4.50;99.90;;;;;;4904042;29;20036;-72
2023/02/01 00:55:54;;;;;;;17.37;2.83;;;4.50;99.90;;;;;;4897477;29;20407;-72
2023/02/01 00:58:22;;;;;;;20.02;2.03;;;4.60;99.90;;;;;;4903003;29;20036;-72
2023/02/01 01:00:49;;;;;;;21.75;2.90;;;4.60;99.90;;;;;;4884456;29;20028;-72
2023/02/01 01:03:18;;;;;;;16.43;1.87;;;4.60;99.90;;;;;;4901760;29;20091;-72
2023/02/01 01:05:49;;;;;;;9.25;1.80;;;4.70;99.90;;;;;;4886673;29;20428;-73
2023/02/01 01:08:16;;;;;;;15.20;1.90;;;4.70;99.90;;;;;;4897443;29;20043;-72
2023/02/01 01:10:43;;;;;;;13.85;1.98;;;4.70;99.90;;;;;;4899906;29;20040;-72
2023/02/01 01:13:09;;;;;;;16.97;1.90;;;4.70;99.90;;;;;;4913518;29;20032;-73
2023/02/01 01:15:37;;;;;;;12.48;2.42;;;4.70;99.90;;;;;;4888347;29;20476;-73
2023/02/01 01:18:04;;;;;;;16.73;2.20;;;4.70;99.90;;;;;;4897498;29;20043;-72
2023/02/01 01:20:30;;;;;;;13.93;2.55;;;4.70;99.90;;;;;;4902296;29;20047;-72
2023/02/01 01:22:57;;;;;;;27.33;2.83;;;4.60;99.90;;;;;;4895651;29;20024;-72
2023/02/01 01:25:23;;;;;;;17.00;2.75;;;4.60;99.90;;;;;;4889610;29;20403;-71
2023/02/01 01:27:49;;;;;;;13.45;2.22;;;4.60;99.90;;;;;;4913497;29;20059;-71
2023/02/01 01:30:16;;;;;;;18.90;2.30;;;4.60;99.90;;;;;;4911995;29;20036;-73
2023/02/01 01:32:42;;;;;;;15.23;2.10;;;4.50;99.90;;;;;;4898432;29;20036;-71
2023/02/01 01:35:09;;;;;;;11.77;1.98;;;4.50;99.90;;;;;;4873375;29;20054;-72
2023/02/01 01:37:35;;;;;;;17.92;2.22;;;4.50;99.90;;;;;;4891915;29;20048;-73
2023/02/01 01:40:03;;;;;;;16.35;1.90;;;4.50;99.90;;;;;;4897277;29;20043;-74
2023/02/01 01:42:30;;;;;;;20.83;2.37;;;4.50;99.90;;;;;;4902558;29;20034;-71
2023/02/01 01:45:04;;;;;;;16.13;2.08;;;4.50;99.90;;;;;;4900304;29;20048;-73
2023/02/01 01:47:44;;;;;;;19.30;2.47;;;4.50;99.90;;;;;;4895964;29;20043;-73
2023/02/01 01:50:16;;;;;;;12.00;1.35;;;4.50;99.90;;;;;;4911966;29;20040;-72
2023/02/01 01:52:46;;;;;;;13.43;1.67;;;4.50;99.90;;;;;;4886914;29;20066;-72
2023/02/01 01:55:14;;;;;;;16.30;2.05;;;4.50;99.90;;;;;;4905557;29;20036;-73
2023/02/01 01:57:45;;;;;;;18.43;2.10;;;4.40;99.90;;;;;;4901545;29;20450;-72
2023/02/01 02:00:15;;;;;;;17.40;1.73;;;4.40;99.90;;;;;;4897101;29;20048;-74
2023/02/01 02:02:46;;;;;;;15.23;1.60;;;4.40;99.90;;;;;;4895428;29;20036;-73
2023/02/01 02:05:15;;;;;;;23.90;3.53;;;4.40;99.90;;;;;;4902609;29;20440;-72
2023/02/01 02:07:46;;;;;;;13.27;2.33;;;4.40;99.90;;;;;;4911951;29;20040;-73
2023/02/01 02:10:15;;;;;;;16.08;2.20;;;4.50;99.90;;;;;;4882060;29;20411;-73
2023/02/01 02:12:47;;;;;;;21.73;1.87;;;4.50;99.90;;;;;;4896521;29;20047;-74
2023/02/01 02:15:16;;;;;;;15.63;2.22;;;4.60;99.90;;;;;;4905363;29;20024;-72
2023/02/01 02:17:53;;;;;;;12.15;2.00;;;4.60;99.90;;;;;;4892241;29;20419;-74
2023/02/01 02:20:52;;;;;;;19.27;2.47;;;4.60;99.90;;;;;;4898903;29;20039;-73
2023/02/01 02:23:23;;;;;;;14.23;2.28;;;4.60;99.90;;;;;;4880751;29;20024;-74
2023/02/01 02:26:14;;;;;;;19.27;1.92;;;4.60;99.90;;;;;;4875540;29;20047;-74
2023/02/01 02:28:49;;;;;;;21.17;2.83;;;4.70;99.90;;;;;;4874196;29;20528;-75
2023/02/01 02:31:45;;;;;;;21.30;2.85;;;4.70;99.90;;;;;;4891501;29;20031;-73
2023/02/01 02:34:25;;;;;;;17.15;2.15;;;4.70;99.90;;;;;;4884530;29;20612;-74
2023/02/01 02:36:54;;;;;;;13.60;1.67;;;4.70;99.90;;;;;;4892602;29;20056;-72
2023/02/01 02:39:34;;;;;;;14.43;1.65;;;4.80;99.90;;;;;;4876387;29;20040;-73
2023/02/01 02:48:20;;;;;;;13.45;1.75;;;4.80;99.90;;;;;;4891431;29;20043;-72
2023/02/01 03:04:58;;;;;;;13.77;2.20;;;4.50;99.90;;;;;;4898930;29;20047;-74
2023/02/01 03:07:47;;;;;;;15.43;2.20;;;4.50;99.90;;;;;;4910255;29;20032;-73
2023/02/01 03:10:44;;;;;;;18.98;1.77;;;4.50;99.90;;;;;;4918196;29;20039;-73
2023/02/01 03:13:42;;;;;;;15.32;1.67;;;4.50;99.90;;;;;;4897263;29;20055;-72
2023/02/01 03:16:31;;;;;;;18.80;2.28;;;4.50;99.90;;;;;;4877534;29;20055;-72
2023/02/01 03:19:04;;;;;;;19.88;3.03;;;4.50;99.90;;;;;;4900007;29;20040;-72
2023/02/01 03:21:36;;;;;;;22.02;1.75;;;4.50;99.90;;;;;;4885628;29;20031;-73
2023/02/01 03:24:08;;;;;;;15.65;2.05;;;4.50;99.90;;;;;;4901701;29;20040;-72
2023/02/01 03:26:38;;;;;;;14.07;1.35;;;4.40;99.90;;;;;;4899868;29;20035;-72
2023/02/01 03:29:13;;;;;;;13.35;1.98;;;4.40;99.90;;;;;;4907089;29;20040;-74
2023/02/01 03:31:42;;;;;;;19.88;2.17;;;4.40;99.90;;;;;;4913116;29;20028;-73
2023/02/01 03:34:12;;;;;;;13.65;2.28;;;4.40;99.90;;;;;;4875538;29;20071;-72
2023/02/01 03:36:48;;;;;;;20.42;2.33;;;4.40;99.90;;;;;;4897148;29;20056;-72
2023/02/01 03:39:20;;;;;;;13.70;2.08;;;4.30;99.90;;;;;;4882678;29;20495;-72
2023/02/01 03:41:58;;;;;;;18.55;2.03;;;4.30;99.90;;;;;;4899155;29;21038;-73
2023/02/01 03:44:29;;;;;;;15.60;2.05;;;4.40;99.90;;;;;;4905414;29;21917;-73
2023/02/01 03:47:03;;;;;;;15.55;1.80;;;4.40;99.90;;;;;;4896712;29;20039;-72
2023/02/01 03:49:41;;;;;;;20.52;2.63;;;4.50;99.90;;;;;;4903198;29;20036;-72
2023/02/01 03:52:20;;;;;;;12.63;1.70;;;4.60;99.90;;;;;;4900857;29;20036;-72
2023/02/01 03:54:47;;;;;;;15.45;1.88;;;4.70;99.90;;;;;;4890698;29;20418;-74
2023/02/01 03:57:16;;;;;;;18.90;3.17;;;4.70;99.90;;;;;;4890130;29;20043;-73
2023/02/01 03:59:44;;;;;;;17.13;2.13;;;4.80;99.90;;;;;;4893968;29;20043;-72
2023/02/01 04:02:11;;;;;;;14.55;1.67;;;4.80;99.90;;;;;;4906448;29;20032;-73
2023/02/01 04:04:37;;;;;;;13.07;2.35;;;4.70;99.90;;;;;;4908121;29;20047;-74
2023/02/01 04:07:05;;;;;;;20.85;1.75;;;4.70;99.90;;;;;;4914394;29;20391;-73
2023/02/01 04:09:31;;;;;;;21.73;2.70;;;4.60;99.90;;;;;;4895376;29;20032;-72
2023/02/01 04:11:57;;;;;;;18.73;2.10;;;4.60;99.90;;;;;;4897290;29;20053;-72
2023/02/01 04:14:24;;;;;;;24.27;3.05;;;4.60;99.90;;;;;;4891024;29;20047;-73
2023/02/01 04:16:50;;;;;;;21.73;2.53;;;4.50;99.90;;;;;;4898179;29;20028;-73
2023/02/01 04:19:16;;;;;;;22.17;1.83;;;4.50;99.90;;;;;;4897360;29;20036;-72
2023/02/01 04:21:43;;;;;;;16.95;2.45;;;4.50;99.90;;;;;;4895323;29;20037;-73
2023/02/01 04:24:10;;;;;;;18.45;2.20;;;4.60;99.90;;;;;;4911491;29;20467;-74
2023/02/01 04:26:36;;;;;;;23.27;2.83;;;4.60;99.90;;;;;;4913325;29;20039;-73
2023/02/01 04:29:02;;;;;;;19.25;2.72;;;4.70;99.90;;;;;;4899142;29;20044;-73
2023/02/01 04:31:29;;;;;;;19.45;2.53;;;4.70;99.90;;;;;;4881015;29;20036;-73
2023/02/01 04:33:57;;;;;;;18.65;3.03;;;4.70;99.90;;;;;;4892742;29;20928;-72
2023/02/01 04:36:24;;;;;;;22.52;3.25;;;4.70;99.90;;;;;;4909460;29;20052;-73
2023/02/01 04:38:51;;;;;;;22.83;3.28;;;4.70;99.90;;;;;;4896163;29;20044;-73
2023/02/01 04:41:18;;;;;;;25.45;2.75;;;4.80;99.90;;;;;;4916055;29;20039;-72
2023/02/01 04:43:49;;;;;;;16.20;3.03;;;4.90;99.90;;;;;;4893475;29;20559;-75
2023/02/01 04:46:16;;;;;;;22.08;2.67;;;5.00;99.90;;;;;;4909022;29;20047;-74
2023/02/01 04:48:42;;;;;;;21.55;3.22;;;5.20;99.90;;;;;;4890795;29;20044;-72
2023/02/01 04:51:09;;;;;;;26.40;3.47;;;5.20;99.90;;;;;;4907406;29;20032;-73
2023/02/01 04:53:36;;;;;;;20.15;3.25;;;5.30;99.90;;;;;;4913176;29;20028;-74
2023/02/01 04:56:03;;;;;;;18.77;2.45;;;5.40;99.90;;;;;;4909661;29;20051;-73
2023/02/01 04:58:29;;;;;;;18.52;1.98;;;5.50;99.90;;;;;;4913596;29;20036;-73
2023/02/01 05:00:55;;;;;;;16.88;2.05;;;5.50;99.90;;;;;;4867231;29;20054;-72
2023/02/01 05:03:22;;;;;;;20.52;2.85;;;5.60;99.90;;;;;;4907232;29;20047;-73
2023/02/01 05:05:48;;;;;;;20.63;2.40;;;5.60;99.90;;;;;;4889183;29;20042;-72
2023/02/01 05:08:15;;;;;;;18.55;2.63;;;5.60;99.90;;;;;;4895233;29;20313;-72
2023/02/01 05:10:41;;;;;;;16.92;1.65;;;5.70;99.90;;;;;;4913595;29;20039;-75
2023/02/01 05:15:55;;;;;;;18.00;2.38;;;5.70;99.90;;;;;;4908458;29;20392;-75
2023/02/01 05:18:21;;;;;;;24.42;2.92;;;5.80;99.90;;;;;;4912875;29;20043;-73
2023/02/01 05:20:47;;;;;;;15.95;2.38;;;5.90;99.90;;;;;;4915572;29;20495;-73
2023/02/01 05:23:13;;;;;;;17.85;2.17;;;5.90;99.90;;;;;;4909492;29;20051;-73
2023/02/01 05:25:40;;;;;;;18.33;1.63;;;5.90;99.90;;;;;;4907056;29;20039;-73
2023/02/01 05:28:06;;;;;;;12.35;2.05;;;6.00;99.90;;;;;;4881805;29;20040;-73
2023/02/01 05:30:34;;;;;;;12.70;1.52;;;6.00;99.90;;;;;;4895120;29;20585;-72
2023/02/01 05:33:02;;;;;;;15.35;2.25;;;6.00;99.90;;;;;;4915398;29;20039;-72
2023/02/01 05:35:28;;;;;;;20.83;2.05;;;6.00;99.90;;;;;;4886040;29;20039;-72
2023/02/01 05:37:54;;;;;;;23.40;2.85;;;6.00;99.90;;;;;;4914028;29;20471;-72
2023/02/01 05:40:21;;;;;;;21.30;2.38;;;6.10;99.90;;;;;;4911195;29;20047;-75
2023/02/01 05:42:47;;;;;;;16.05;3.53;;;6.10;99.90;;;;;;4899740;29;20023;-72
2023/02/01 05:45:14;;;;;;;17.55;2.40;;;6.10;99.90;;;;;;4885723;29;20047;-73
2023/02/01 05:47:40;;;;;;;23.95;2.70;;;6.20;99.90;;;;;;4897371;29;20586;-73
2023/02/01 05:50:07;;;;;;;15.65;2.10;;;6.20;99.90;;;;;;4910189;29;20058;-73
2023/02/01 05:52:33;;;;;;;14.25;2.20;;;6.20;99.90;;;;;;4894584;29;20040;-73
2023/02/01 05:54:59;;;;;;;18.25;2.28;;;6.20;99.90;;;;;;4887471;29;20032;-73
2023/02/01 05:57:26;;;;;;;20.65;2.75;;;6.20;99.90;;;;;;4894328;29;20040;-73
2023/02/01 05:59:52;;;;;;;26.23;4.35;;;6.20;99.90;;;;;;4890859;29;20047;-72
2023/02/01 06:02:18;;;;;;;27.27;3.20;;;6.20;99.90;;;;;;4891252;29;20043;-72
2023/02/01 06:04:45;;;;;;;20.58;2.60;;;6.20;99.90;;;;;;4868929;29;20047;-73
2023/02/01 06:07:11;;;;;;;23.50;2.63;;;6.30;99.90;;;;;;4888790;29;20048;-75
2023/02/01 06:09:38;;;;;;;20.55;2.42;;;6.30;99.90;;;;;;4908654;29;20035;-72
2023/02/01 06:12:04;;;;;;;21.33;2.50;;;6.30;99.90;;;;;;4881249;29;20048;-75
2023/02/01 06:14:30;;;;;;;20.30;2.85;;;6.30;99.90;;;;;;4885504;29;20551;-74
2023/02/01 06:16:57;;;;;;;22.98;3.03;;;6.30;99.90;;;;;;4912845;29;20047;-73
2023/02/01 06:19:24;;;;;;;15.32;2.78;;;6.30;99.90;;;;;;4894059;29;20040;-73
2023/02/01 06:21:50;;;;;;;20.15;2.00;;;6.30;99.90;;;;;;4894173;29;20110;-74
2023/02/01 06:24:16;;;;;;;24.15;3.00;;;6.30;99.90;;;;;;4904933;29;20047;-73
2023/02/01 06:26:43;;;;;;;17.67;2.13;;;6.30;99.90;;;;;;4909476;29;20496;-75
2023/02/01 06:29:12;;;;;;;23.88;2.67;;;6.30;99.90;;;;;;4896089;29;20036;-74
2023/02/01 06:31:40;;;;;;;16.08;2.75;;;6.30;99.90;;;;;;4898865;29;20502;-73
2023/02/01 06:34:06;;;;;;;13.32;1.48;;;6.40;99.90;;;;;;4890067;29;20047;-75
2023/02/01 06:36:32;;;;;;;21.90;3.15;;;6.30;99.90;;;;;;4910334;29;20056;-73
2023/02/01 06:38:59;;;;;;;23.63;3.72;;;6.40;99.90;;;;;;4880710;29;20040;-74
2023/02/01 06:41:26;;;;;;;22.17;2.85;;;6.40;99.90;;;;;;4888079;29;20428;-75
2023/02/01 06:43:52;;;;;;;17.67;1.55;;;6.40;99.90;;;;;;4871733;29;21353;-74
2023/02/01 06:46:19;;;;;;;20.60;2.67;;;6.40;99.90;;;;;;4899567;29;20040;-74
2023/02/01 06:48:45;;;;;;;17.20;2.80;;;6.40;99.90;;;;;;4891783;29;20495;-74
2023/02/01 06:51:21;;;;;;;19.00;2.30;;;6.40;99.90;;;;;;4882104;29;20051;-76
2023/02/01 06:53:47;;;;;;;24.05;2.67;;;6.40;99.90;;;;;;4900609;29;20621;-74
2023/02/01 06:56:13;;;;;;;18.40;2.55;;;6.40;99.90;;;;;;4886963;29;20047;-73
2023/02/01 06:58:40;;;;;;;17.55;2.25;;;6.40;99.90;;;;;;4899158;29;20051;-76
2023/02/01 07:01:08;;;;;;;23.77;4.15;;;6.40;99.90;;;;;;4912687;29;20591;-73
2023/02/01 07:03:35;;;;;;;32.65;3.78;;;6.40;99.90;;;;;;4893799;29;20040;-74
2023/02/01 07:06:02;;;;;;;21.50;2.20;;;6.40;99.90;;;;;;4892649;29;20063;-73
2023/02/01 07:08:29;;;;;;;19.55;2.08;;;6.40;99.90;;;;;;4914860;29;20040;-73
2023/02/01 07:10:55;;;;;;;16.98;2.80;;;6.40;99.90;;;;;;4910405;29;20311;-73
2023/02/01 07:13:21;;;;;;;18.73;2.53;;;6.40;99.90;;;;;;4907263;29;20043;-73
2023/02/01 07:15:48;;;;;;;20.38;2.63;;;6.40;99.90;;;;;;4869997;29;20062;-73
2023/02/01 07:18:15;;;;;;;20.45;2.45;;;6.40;99.90;;;;;;4894854;29;20050;-73
2023/02/01 07:20:41;;;;;;;16.02;2.00;;;6.30;99.90;;;;;;4897277;29;20040;-75
2023/02/01 07:23:10;;;;;;;18.60;1.90;;;6.30;99.90;;;;;;4909618;29;20047;-73
2023/02/01 07:25:36;;;;;;;23.33;2.42;;;6.30;99.90;;;;;;4903846;29;20407;-73
2023/02/01 07:28:02;;;;;;;20.42;2.53;;;6.20;99.90;;;;;;4910404;29;20051;-74
2023/02/01 07:30:29;;;;;;;18.63;2.60;;;6.10;99.90;;;;;;4893414;29;20067;-75
2023/02/01 07:32:59;;;;;;;12.55;2.03;;;6.10;99.90;;;;;;4891745;29;20050;-73
2023/02/01 07:35:25;;;;;;;21.17;2.83;;;6.10;99.90;;;;;;4888852;29;20035;-73
2023/02/01 07:37:51;;;;;;;17.67;2.13;;;6.10;99.90;;;;;;4915086;29;20056;-74
2023/02/01 07:40:18;;;;;;;25.80;2.38;;;6.10;99.90;;;;;;4913728;29;20028;-73
2023/02/01 07:42:44;;;;;;;19.40;3.08;;;6.10;99.90;;;;;;4893104;29;20044;-73
2023/02/01 07:45:13;;;;;;;20.15;2.42;;;6.10;99.90;;;;;;4865021;29;20492;-73
2023/02/01 07:47:40;;;;;;;23.33;3.13;;;6.00;99.90;;;;;;4897257;29;20393;-75
2023/02/01 07:50:07;;;;;;;15.88;3.13;;;6.00;99.90;;;;;;4899210;29;20039;-73
2023/02/01 07:52:33;;;;;;;18.38;2.03;;;5.90;99.90;;;;;;4913244;29;20071;-73
2023/02/01 07:55:00;;;;;;;18.40;2.30;;;5.90;99.90;;;;;;4869205;29;20047;-73
2023/02/01 07:57:26;;;;;;;21.15;2.30;;;5.90;99.90;;;;;;4915422;29;20052;-74
2023/02/01 08:02:40;;;;;;;17.92;2.40;;;6.00;99.90;;;;;;4916750;29;20051;-73
2023/02/01 08:05:07;;;;;;;19.08;2.65;;;6.00;99.90;;;;;;4890342;29;20046;-72
2023/02/01 08:07:33;;;;;;;17.48;1.98;;;6.00;99.90;;;;;;4882082;29;20085;-74
2023/02/01 08:10:00;;;;;;;12.75;1.85;;;6.00;99.90;;;;;;4913209;29;20494;-73
2023/02/01 08:12:26;;;;;;;12.52;2.17;;;6.00;99.90;;;;;;4898525;29;20130;-75
2023/02/01 08:14:53;;;;;;;15.95;2.22;;;6.10;99.90;;;;;;4906376;29;20043;-73
2023/02/01 08:17:20;;;;;;;16.77;2.55;;;6.20;99.90;;;;;;4896809;29;20040;-74
2023/02/01 08:19:46;;;;;;;17.80;2.83;;;6.20;99.90;;;;;;4891678;29;20047;-75
2023/02/01 08:22:12;;;;;;;18.02;3.33;;;6.30;99.90;;;;;;4903558;29;20055;-73
2023/02/01 08:24:40;;;;;;;17.30;2.35;;;6.30;99.90;;;;;;4903943;29;20044;-73
2023/02/01 08:27:06;;;;;;;19.17;2.47;;;6.30;99.90;;;;;;4909100;29;20040;-75
2023/02/01 08:29:32;;;;;;;16.05;2.28;;;6.30;99.90;;;;;;4889669;29;20476;-73
2023/02/01 08:31:59;;;;;;;18.63;2.08;;;6.30;99.90;;;;;;4906994;29;20048;-72
2023/02/01 08:34:25;;;;;;;14.02;1.67;;;6.30;99.90;;;;;;4879152;29;20738;-73
2023/02/01 08:36:57;;;;;;;18.83;1.92;;;6.40;99.90;;;;;;4892902;29;20056;-74
2023/02/01 08:39:23;;;;;;;20.38;2.72;;;6.40;99.90;;;;;;4891377;29;20049;-73
2023/02/01 08:42:50;;;;;;;20.10;2.10;;;6.50;99.90;;;;;;4908358;29;20514;-73
2023/02/01 08:44:36;;;;;;;14.93;1.92;;;6.50;99.90;;;;;;4883525;29;20051;-74
2023/02/01 08:47:03;;;;;;;19.48;2.55;;;6.60;99.90;;;;;;4899113;29;20055;-73
2023/02/01 08:49:30;;;;;;;19.55;2.60;;;6.70;99.90;;;;;;4863550;29;20040;-74
2023/02/01 08:51:56;;;;;;;21.40;3.33;;;6.80;99.90;;;;;;4894954;29;20042;-74
2023/02/01 08:54:22;;;;;;;21.15;3.08;;;6.90;99.90;;;;;;4883528;29;20851;-76
2023/02/01 08:56:48;;;;;;;22.90;2.25;;;7.10;99.90;;;;;;4910993;29;20051;-74
2023/02/01 08:59:15;;;;;;;11.38;2.20;;;7.20;99.90;;;;;;4897672;29;20036;-73
2023/02/01 09:01:41;;;;;;;15.30;1.80;;;7.40;99.90;;;;;;4901786;29;20488;-74
2023/02/01 09:04:08;;;;;;;12.90;2.03;;;7.60;99.90;;;;;;4891688;29;20028;-76
2023/02/01 09:06:34;;;;;;;16.50;1.67;;;7.70;99.90;;;;;;4911012;29;20055;-73
2023/02/01 09:09:00;;;;;;;20.25;2.45;;;7.80;99.90;;;;;;4909636;29;20036;-76
2023/02/01 09:11:26;;;;;;;17.00;1.58;;;7.80;99.90;;;;;;4896944;29;20047;-75
2023/02/01 09:13:53;;;;;;;14.63;2.13;;;7.90;99.90;;;;;;4892295;29;20048;-74
2023/02/01 09:16:19;;;;;;;13.18;1.80;;;7.90;99.90;;;;;;4877453;29;20040;-73
2023/02/01 09:18:46;;;;;;;17.52;2.15;;;7.90;99.90;;;;;;4911096;29;20035;-74
2023/02/01 09:21:12;;;;;;;17.15;2.50;;;7.90;99.90;;;;;;4912384;29;20042;-73
2023/02/01 09:23:38;;;;;;;20.80;2.63;;;7.90;99.90;;;;;;4893688;29;20035;-77
2023/02/01 09:26:05;;;;;;;13.73;2.20;;;7.90;99.90;;;;;;4884519;29;20048;-73
2023/02/01 09:28:31;;;;;;;17.00;3.25;;;8.00;99.90;;;;;;4911693;29;20222;-73
2023/02/01 09:31:01;;;;;;;16.80;2.60;;;8.10;99.90;;;;;;4914802;29;20050;-74
2023/02/01 09:33:28;;;;;;;19.27;3.35;;;8.10;99.90;;;;;;4897429;29;20044;-75
2023/02/01 09:36:00;;;;;;;21.33;2.90;;;8.10;99.90;;;;;;4873778;29;20059;-73
2023/02/01 09:38:27;;;;;;;19.73;2.45;;;8.20;99.90;;;;;;4891102;29;20051;-73
2023/02/01 09:40:55;;;;;;;15.43;2.50;;;8.20;99.90;;;;;;4882997;29;20055;-73
2023/02/01 09:43:40;;;;;;;15.38;2.53;;;8.20;99.90;;;;;;4912584;29;20055;-74
2023/02/01 09:46:24;;;;;;;20.55;2.67;;;8.30;99.90;;;;;;4911484;29;20415;-74
2023/02/01 09:48:54;;;;;;;14.98;2.22;;;8.40;99.90;;;;;;4895616;29;20040;-72
2023/02/01 09:51:37;;;;;;;14.73;2.17;;;8.50;99.90;;;;;;4883117;29;20046;-75
2023/02/01 09:54:13;;;;;;;19.63;2.80;;;8.50;99.90;;;;;;4906609;29;20040;-72
2023/02/01 09:57:02;;;;;;;16.95;2.33;;;8.40;99.90;;;;;;4892239;29;20043;-73
2023/02/01 09:59:49;;;;;;;16.05;2.60;;;8.30;99.90;;;;;;4911791;29;20062;-73
2023/02/01 10:02:22;;;;;;;22.75;2.20;;;8.30;99.90;;;;;;4915628;29;20032;-73
2023/02/01 10:04:49;;;;;;;15.55;2.30;;;8.20;99.90;;;;;;4899182;29;20046;-71
2023/02/01 10:07:54;;;;;;;16.42;1.73;;;8.20;99.90;;;;;;4882764;29;20408;-72
2023/02/01 10:10:23;;;;;;;17.15;1.95;;;8.10;99.90;;;;;;4896562;29;20502;-72
2023/02/01 10:13:18;;;;;;;14.35;2.08;;;8.10;99.90;;;;;;4907638;29;20035;-73
2023/02/01 10:15:55;;;;;;;21.30;2.63;;;8.00;99.90;;;;;;4908988;29;20047;-72
2023/02/01 10:18:34;;;;;;;23.60;3.72;;;8.00;99.90;;;;;;4911800;29;20498;-72
2023/02/01 10:21:41;;;;;;;16.60;1.92;;;7.90;99.90;;;;;;4895970;29;20399;-72
2023/02/01 10:24:36;;;;;;;21.00;2.97;;;7.90;99.90;;;;;;4899788;29;20051;-75
2023/02/01 10:27:23;;;;;;;17.08;2.33;;;7.90;99.90;;;;;;4889500;29;20052;-74
2023/02/01 10:29:57;;;;;;;18.02;1.88;;;7.90;99.90;;;;;;4891135;29;20504;-73
2023/02/01 10:32:29;;;;;;;18.70;2.53;;;7.80;99.90;;;;;;4913876;29;20516;-72
2023/02/01 10:34:59;;;;;;;19.58;2.70;;;7.80;99.90;;;;;;4887086;29;20040;-71
2023/02/01 10:37:31;;;;;;;15.23;1.95;;;7.80;99.90;;;;;;4890386;29;20063;-71
2023/02/01 10:40:16;;;;;;;19.77;3.83;;;7.60;99.90;;;;;;4912996;29;20036;-71
2023/02/01 10:42:43;;;;;;;20.23;3.30;;;7.50;99.90;;;;;;4898816;29;20036;-71
2023/02/01 10:45:16;;;;;;;18.63;2.55;;;7.40;99.90;;;;;;4907077;29;20036;-73
2023/02/01 10:47:42;;;;;;;;;;;7.30;99.90;;;;;;4914721;29;20048;-71
2023/02/01 10:50:34;;;;;;;24.40;2.95;;;7.20;99.90;;;;;;4879619;29;20295;-71
2023/02/01 10:53:11;;;;;;;21.65;3.10;;;7.20;99.90;;;;;;4900850;29;20051;-73
2023/02/01 10:55:46;;;;;;;22.05;3.47;;;7.10;99.90;;;;;;4905970;29;20039;-72
2023/02/01 10:58:25;;;;;;;23.58;2.42;;;7.10;99.90;;;;;;4894884;29;20055;-72
2023/02/01 11:01:02;;;;;;;21.40;2.78;;;7.00;99.90;;;;;;4913486;29;20483;-73
2023/02/01 11:03:42;;;;;;;20.08;2.90;;;6.90;99.90;;;;;;4916101;29;20051;-72
2023/02/01 11:06:26;;;;;;;16.73;2.63;;;6.80;99.90;;;;;;4886201;29;20044;-73
2023/02/01 11:08:58;;;;;;;20.65;3.03;;;6.80;99.90;;;;;;4918235;29;20044;-72
2023/02/01 11:11:25;;;;;;;28.40;3.00;;;6.80;99.90;;;;;;4900731;29;20048;-72
2023/02/01 11:13:55;;;;;;;22.27;2.85;;;6.70;99.90;;;;;;4895910;29;20471;-75
2023/02/01 11:16:36;;;;;;;22.00;2.70;;;6.70;99.90;;;;;;4914199;29;20040;-72
2023/02/01 11:19:03;;;;;;;20.23;2.60;;;6.70;99.90;;;;;;4914975;29;20040;-72
2023/02/01 11:21:29;;;;;;;22.40;2.83;;;6.70;99.90;;;;;;4899891;29;20051;-72
2023/02/01 11:24:02;;;;;;;21.38;2.78;;;6.70;99.90;;;;;;4912982;29;20414;-73
2023/02/01 11:26:29;;;;;;;19.33;2.78;;;6.70;99.90;;;;;;4896720;29;20391;-74
2023/02/01 11:29:04;;;;;;;25.00;2.85;;;6.70;99.90;;;;;;4915287;29;20043;-75
2023/02/01 11:31:33;;;;;;;20.60;2.75;;;6.70;99.90;;;;;;4916656;29;20028;-74
2023/02/01 11:34:08;;;;;;;15.65;2.35;;;6.70;99.90;;;;;;4912770;29;20036;-73
2023/02/01 11:36:37;;;;;;;28.83;2.90;;;6.70;99.90;;;;;;4899448;29;20067;-72
2023/02/01 11:39:10;;;;;;;19.77;2.72;;;6.80;99.90;;;;;;4885293;29;20044;-71
2023/02/01 11:42:13;;;;;;;21.60;2.63;;;6.80;99.90;;;;;;4899067;29;20031;-71
2023/02/01 11:44:42;;;;;;;20.95;3.38;;;6.80;99.90;;;;;;4889432;29;20495;-69
2023/02/01 11:47:29;;;;;;;18.15;2.85;;;6.80;99.90;;;;;;4915176;29;20491;-70
2023/02/01 11:50:01;;;;;;;17.20;2.58;;;6.80;99.90;;;;;;4915760;29;20047;-70
2023/02/01 11:53:05;;;;;;;23.42;3.08;;;6.80;99.90;;;;;;4917752;29;20032;-69
2023/02/01 11:55:52;;;;;;;23.85;3.05;;;6.80;99.90;;;;;;4867607;29;20054;-69
2023/02/01 11:58:23;;;;;;;21.05;2.92;;;6.80;99.90;;;;;;4886109;29;20142;-73
2023/02/01 12:01:17;;;;;;;21.00;2.63;;;6.80;99.90;;;;;;4897268;29;20032;-71
2023/02/01 12:03:50;;;;;;;23.88;2.78;;;6.90;99.90;;;;;;4910950;29;20036;-72
2023/02/01 12:06:35;;;;;;;24.48;2.20;;;7.00;99.90;;;;;;4911452;29;20043;-70
2023/02/01 12:09:17;;;;;;;18.58;2.03;;;7.00;99.90;;;;;;4881296;29;20051;-71
2023/02/01 12:11:49;;;;;;;19.02;2.85;;;7.10;99.90;;;;;;4898828;29;20047;-69
2023/02/01 12:14:55;;;;;;;21.48;1.75;;;7.20;99.90;;;;;;4909850;29;20040;-71
2023/02/01 12:17:47;;;;;;;16.50;1.92;;;7.20;99.90;;;;;;4913641;29;20153;-70
2023/02/01 12:20:35;;;;;;;19.00;2.87;;;7.30;99.90;;;;;;4916600;29;20035;-70
2023/02/01 12:23:10;;;;;;;19.52;2.55;;;7.30;99.90;;;;;;4900570;29;20308;-70
2023/02/01 12:26:09;;;;;;;17.35;2.08;;;7.40;99.90;;;;;;4887936;29;20059;-70
2023/02/01 12:28:41;;;;;;;21.38;2.63;;;7.50;99.90;;;;;;4917188;29;20044;-71
2023/02/01 12:31:49;;;;;;;13.88;1.77;;;7.60;99.90;;;;;;4877863;29;20036;-71
2023/02/01 12:34:30;;;;;;;23.17;3.75;;;7.60;99.90;;;;;;4877884;29;20052;-70
2023/02/01 12:37:08;;;;;;;20.80;2.38;;;7.70;99.90;;;;;;4912536;29;20056;-71
2023/02/01 12:39:45;;;;;;;18.10;3.50;;;7.70;99.90;;;;;;4895034;29;20278;-70
2023/02/01 12:42:27;;;;;;;20.45;3.03;;;7.80;99.90;;;;;;4903307;29;20047;-70
2023/02/01 12:45:10;;;;;;;21.23;3.10;;;7.80;99.90;;;;;;4901702;29;20723;-70
2023/02/01 12:48:05;;;;;;;17.08;2.45;;;7.90;99.90;;;;;;4915852;29;20047;-72
2023/02/01 12:50:49;;;;;;;21.08;2.60;;;7.90;99.90;;;;;;4895542;29;20051;-73
2023/02/01 12:53:46;;;;;;;17.60;3.08;;;7.90;99.90;;;;;;4894696;29;20028;-73
2023/02/01 12:56:20;;;;;;;14.20;1.88;;;7.90;99.90;;;;;;4892651;29;20589;-71
2023/02/01 12:58:52;;;;;;;21.10;3.28;;;7.90;99.90;;;;;;4898112;29;20059;-73
2023/02/01 13:01:21;;;;;;;16.52;2.50;;;7.90;99.90;;;;;;4912603;29;20040;-74
2023/02/01 13:04:01;;;;;;;14.25;1.67;;;7.90;99.90;;;;;;4874668;29;20631;-72
2023/02/01 13:06:31;;;;;;;14.95;2.20;;;7.90;99.90;;;;;;4911034;29;20040;-72
2023/02/01 13:09:08;;;;;;;21.98;2.83;;;7.90;99.90;;;;;;4915880;29;20040;-71
2023/02/01 13:11:37;;;;;;;21.17;2.15;;;7.90;99.90;;;;;;4914734;29;20031;-70
2023/02/01 13:14:19;;;;;;;16.50;2.22;;;7.90;99.90;;;;;;4892754;29;20047;-71
2023/02/01 13:16:52;;;;;;;18.07;2.60;;;8.00;99.90;;;;;;4882185;29;20071;-72
2023/02/01 13:20:03;;;;;;;17.25;1.90;;;7.90;99.90;;;;;;4912169;29;20369;-70
2023/02/01 13:22:38;;;;;;;22.17;3.05;;;8.00;99.90;;;;;;4877975;29;20084;-71
2023/02/01 13:25:19;;;;;;;19.48;2.40;;;7.90;99.90;;;;;;4886326;29;20044;-71
2023/02/01 13:27:46;;;;;;;22.80;3.35;;;7.90;99.90;;;;;;4891118;29;20400;-72
2023/02/01 13:30:23;;;;;;;21.25;1.83;;;7.90;99.90;;;;;;4894743;29;20488;-71
2023/02/01 13:33:18;;;;;;;16.92;1.65;;;7.90;99.90;;;;;;4878738;29;20066;-72
2023/02/01 13:35:59;;;;;;;22.90;2.15;;;7.90;99.90;;;;;;4905087;29;20408;-71
2023/02/01 13:38:29;;;;;;;15.90;1.55;;;7.90;99.90;;;;;;4914634;29;20051;-73